createdAt,value
2019-02-11T00:05:01.862Z,96475.95
2019-02-11T00:10:08.249Z,96468.23
2019-02-11T00:15:13.539Z,96494.58
2019-02-11T00:20:19.171Z,96492.83
2019-02-11T00:25:24.258Z,96483.02
2019-02-11T00:30:29.352Z,96507.70
2019-02-11T00:35:34.931Z,96521.02
2019-02-11T00:40:39.933Z,96542.63
2019-02-11T00:45:45.123Z,96550.27
2019-02-11T00:50:50.618Z,96560.66
2019-02-11T00:55:56.442Z,96580.94
2019-02-11T01:01:02.507Z,96634.99
2019-02-11T01:06:07.736Z,96631.72
2019-02-11T01:11:13.036Z,96657.13
2019-02-11T01:16:18.195Z,96692.88
2019-02-11T01:21:24.367Z,96694.53
2019-02-11T01:26:29.445Z,96686.63
2019-02-11T01:31:34.662Z,96719.12
2019-02-11T01:36:39.784Z,96714.42
2019-02-11T01:41:46.332Z,96728.42
2019-02-11T01:46:51.786Z,96739.87
2019-02-11T01:51:57.851Z,96759.91
2019-02-11T01:57:02.933Z,96749.13
2019-02-11T02:02:07.931Z,96757.50
2019-02-11T02:07:13.301Z,96775.09
2019-02-11T02:12:18.549Z,96776.49
2019-02-11T02:17:24.862Z,96771.27
2019-02-11T02:22:29.943Z,96794.08
2019-02-11T02:27:34.949Z,96805.45
2019-02-11T02:32:40.051Z,96821.34
2019-02-11T02:37:45.159Z,96834.31
2019-02-11T02:42:50.966Z,96850.09
2019-02-11T02:47:56.051Z,96854.52
2019-02-11T02:53:01.441Z,96875.92
2019-02-11T02:58:06.515Z,96867.38
2019-02-11T03:03:11.609Z,96881.84
2019-02-11T03:08:17.664Z,96935.09
2019-02-11T03:13:22.766Z,96936.28
2019-02-11T03:18:27.845Z,96938.60
2019-02-11T03:23:34.285Z,96969.28
2019-02-11T03:28:39.735Z,96974.30
2019-02-11T03:33:46.100Z,96999.76
2019-02-11T03:38:51.517Z,97000.45
2019-02-11T03:43:57.596Z,97022.76
2019-02-11T03:49:03.131Z,97027.25
2019-02-11T03:54:08.204Z,97032.98
2019-02-11T03:59:13.438Z,97046.73
2019-02-11T04:04:18.593Z,97049.36
2019-02-11T04:09:23.828Z,97062.62
2019-02-11T04:14:30.113Z,97080.03
2019-02-11T04:19:35.632Z,97079.05
2019-02-11T04:24:41.151Z,97093.18
2019-02-11T04:29:46.635Z,97115.20
2019-02-11T04:34:51.970Z,97124.06
2019-02-11T04:39:57.862Z,97144.70
2019-02-11T04:45:04.077Z,97146.89
2019-02-11T04:50:09.732Z,97161.70
2019-02-11T04:55:14.898Z,97160.09
2019-02-11T05:00:20.890Z,97168.03
2019-02-11T05:05:26.066Z,97175.26
2019-02-11T05:10:31.700Z,97188.58
2019-02-11T05:15:38.170Z,97194.28
2019-02-11T05:20:44.289Z,97212.67
2019-02-11T05:25:49.455Z,97220.77
2019-02-11T05:30:55.568Z,97230.55
2019-02-11T05:36:01.013Z,97235.09
2019-02-11T05:41:07.605Z,97230.84
2019-02-11T05:46:14.685Z,97243.91
2019-02-11T05:51:20.714Z,97255.87
2019-02-11T05:56:26.390Z,97254.86
2019-02-11T06:01:31.668Z,97271.11
2019-02-11T06:06:38.418Z,97288.17
2019-02-11T06:11:45.634Z,97299.67
2019-02-11T06:16:50.748Z,97300.91
2019-02-11T06:21:56.590Z,97328.31
2019-02-11T06:27:01.751Z,97354.73
2019-02-11T06:32:07.183Z,97351.85
2019-02-11T06:37:12.401Z,97353.42
2019-02-11T06:42:17.940Z,97366.73
2019-02-11T06:47:23.088Z,97375.66
2019-02-11T06:52:28.264Z,97387.47
2019-02-11T06:57:33.437Z,97399.84
2019-02-11T07:02:39.032Z,97431.09
2019-02-11T07:07:44.604Z,97454.78
2019-02-11T07:12:50.957Z,97459.81
2019-02-11T07:17:56.042Z,97493.06
2019-02-11T07:23:01.280Z,97471.91
2019-02-11T07:28:06.556Z,97476.70
2019-02-11T07:33:12.459Z,97486.80
2019-02-11T07:38:17.661Z,97519.17
2019-02-11T07:43:26.770Z,97524.46
2019-02-11T07:48:32.380Z,97510.23
2019-02-11T07:53:37.556Z,97531.73
2019-02-11T07:58:42.728Z,97569.66
2019-02-11T08:03:48.171Z,97555.83
2019-02-11T08:08:53.339Z,97567.22
2019-02-11T08:13:59.505Z,97565.72
2019-02-11T08:19:05.108Z,97562.30
2019-02-11T08:24:10.209Z,97588.56
2019-02-11T08:29:15.364Z,97584.44
2019-02-11T08:34:20.863Z,97595.61
2019-02-11T08:39:26.025Z,97593.17
2019-02-11T08:44:33.619Z,97617.12
2019-02-11T08:49:38.931Z,97622.81
2019-02-11T08:54:45.322Z,97645.14
2019-02-11T08:59:50.398Z,97634.17
2019-02-11T09:04:55.938Z,97652.00
2019-02-11T09:10:01.101Z,97668.03
2019-02-11T09:15:08.301Z,97663.75
2019-02-11T09:20:13.667Z,97670.43
2019-02-11T09:25:19.108Z,97702.88
2019-02-11T09:30:24.968Z,97699.67
2019-02-11T09:35:30.165Z,97704.00
2019-02-11T09:40:35.647Z,97711.54
2019-02-11T09:45:41.298Z,97711.18
2019-02-11T09:50:51.658Z,97733.25
2019-02-11T09:55:56.820Z,97724.66
2019-02-11T10:01:02.002Z,97737.84
2019-02-11T10:06:07.471Z,97744.76
2019-02-11T10:11:12.638Z,97747.67
2019-02-11T10:16:18.607Z,97756.62
2019-02-11T10:21:23.903Z,97770.86
2019-02-11T10:26:29.070Z,97763.67
2019-02-11T10:31:34.268Z,97771.80
2019-02-11T10:36:39.712Z,97788.03
2019-02-11T10:41:46.444Z,97815.08
2019-02-11T10:46:51.716Z,97811.64
2019-02-11T10:51:56.870Z,97825.70
2019-02-11T10:57:02.895Z,97832.07
2019-02-11T11:02:08.078Z,97866.99
2019-02-11T11:07:13.258Z,97841.99
2019-02-11T11:12:18.930Z,97877.20
2019-02-11T11:17:25.202Z,97865.11
2019-02-11T11:22:30.687Z,97872.73
2019-02-11T11:27:36.261Z,97873.22
2019-02-11T11:32:42.686Z,97886.66
2019-02-11T11:37:48.101Z,97903.28
2019-02-11T11:42:53.908Z,97930.92
2019-02-11T11:47:59.094Z,97915.88
2019-02-11T11:53:04.514Z,97916.45
2019-02-11T11:58:09.988Z,97921.59
2019-02-11T12:03:16.251Z,97934.18
2019-02-11T12:08:21.841Z,97946.95
2019-02-11T12:13:27.035Z,97957.87
2019-02-11T12:18:32.238Z,97985.61
2019-02-11T12:23:37.420Z,97979.11
2019-02-11T12:28:43.579Z,97996.44
2019-02-11T12:33:49.193Z,97989.25
2019-02-11T12:38:54.408Z,98001.50
2019-02-11T12:43:59.922Z,98017.77
2019-02-11T12:49:05.136Z,98003.30
2019-02-11T12:54:10.563Z,98011.87
2019-02-11T12:59:15.764Z,98023.78
2019-02-11T13:04:20.945Z,98030.14
2019-02-11T13:09:26.145Z,98051.72
2019-02-11T13:14:31.339Z,98045.53
2019-02-11T13:19:36.879Z,98052.44
2019-02-11T13:24:42.076Z,98056.50
2019-02-11T13:29:48.205Z,98057.61
2019-02-11T13:34:53.870Z,98068.51
2019-02-11T13:39:59.368Z,98086.34
2019-02-11T13:45:07.221Z,98099.13
2019-02-11T13:50:15.058Z,98130.65
2019-02-11T13:55:20.266Z,98112.64
2019-02-11T14:00:31.527Z,98124.63
2019-02-11T14:05:37.668Z,98125.69
2019-02-11T14:10:42.942Z,98126.09
2019-02-11T14:15:48.177Z,98132.26
2019-02-11T14:20:53.672Z,98155.49
2019-02-11T14:25:58.868Z,98203.70
2019-02-11T14:31:04.505Z,98243.18
2019-02-11T14:36:09.779Z,98235.22
2019-02-11T14:41:15.833Z,98250.47
2019-02-11T14:46:21.165Z,98279.66
2019-02-11T14:51:27.078Z,98273.97
2019-02-11T14:56:33.704Z,98258.91
2019-02-11T15:01:39.170Z,98257.19
2019-02-11T15:06:44.359Z,98257.66
2019-02-11T15:11:50.496Z,98271.95
2019-02-11T15:16:56.071Z,98277.03
2019-02-11T15:22:01.584Z,98291.89
2019-02-11T15:27:07.155Z,98302.67
2019-02-11T15:32:12.472Z,98320.31
2019-02-11T15:37:17.675Z,98318.84
2019-02-11T15:42:22.963Z,98327.38
2019-02-11T15:47:29.331Z,98338.67
2019-02-11T15:52:34.803Z,98356.75
2019-02-11T15:57:40.863Z,98365.98
2019-02-11T16:02:46.163Z,98385.69
2019-02-11T16:07:51.727Z,98407.66
2019-02-11T16:12:57.023Z,98421.73
2019-02-11T16:18:02.210Z,98438.16
2019-02-11T16:23:08.472Z,98441.58
2019-02-11T16:28:13.655Z,98449.95
2019-02-11T16:33:19.266Z,98461.74
2019-02-11T16:38:24.483Z,98478.11
2019-02-11T16:43:30.034Z,98491.20
2019-02-11T16:48:35.582Z,98502.96
2019-02-11T16:53:40.760Z,98507.84
2019-02-11T16:58:45.958Z,98544.23
2019-02-11T17:03:51.150Z,98540.99
2019-02-11T17:08:56.334Z,98559.05
2019-02-11T17:14:02.532Z,98574.31
2019-02-11T17:19:09.390Z,98588.84
2019-02-11T17:24:14.619Z,98601.80
2019-02-11T17:29:19.815Z,98613.52
2019-02-11T17:34:25.378Z,98628.10
2019-02-11T17:39:30.562Z,98636.84
2019-02-11T17:44:36.425Z,98645.44
2019-02-11T17:49:41.985Z,98648.48
2019-02-11T17:54:47.171Z,98660.52
2019-02-11T17:59:52.483Z,98676.91
2019-02-11T18:04:58.529Z,98687.81
2019-02-11T18:10:03.761Z,98693.75
2019-02-11T18:15:09.456Z,98714.94
2019-02-11T18:20:14.957Z,98731.17
2019-02-11T18:25:21.111Z,98739.64
2019-02-11T18:30:27.565Z,98752.22
2019-02-11T18:35:32.811Z,98770.02
2019-02-11T18:40:38.004Z,98773.61
2019-02-11T18:45:43.503Z,98779.33
2019-02-11T18:50:48.695Z,98805.10
2019-02-11T18:55:53.886Z,98791.01
2019-02-11T19:00:59.070Z,98812.67
2019-02-11T19:06:04.246Z,98843.28
2019-02-11T19:11:09.914Z,98845.27
2019-02-11T19:16:15.377Z,98857.52
2019-02-11T19:21:21.547Z,98880.42
2019-02-11T19:26:28.407Z,98886.35
2019-02-11T19:31:33.640Z,98898.37
2019-02-11T19:36:38.891Z,98904.64
2019-02-11T19:41:44.094Z,98912.06
2019-02-11T19:46:49.289Z,98914.30
2019-02-11T19:51:54.470Z,98924.19
2019-02-11T19:57:00.764Z,98938.45
2019-02-11T20:02:06.270Z,98946.77
2019-02-11T20:07:11.466Z,98950.84
2019-02-11T20:12:16.652Z,98949.89
2019-02-11T20:17:22.733Z,98971.22
2019-02-11T20:22:27.919Z,98962.13
2019-02-11T20:27:33.110Z,98972.38
2019-02-11T20:32:38.425Z,98986.89
2019-02-11T20:37:43.634Z,98988.93
2019-02-11T20:42:50.437Z,98996.11
2019-02-11T20:47:55.862Z,99014.52
2019-02-11T20:53:01.074Z,99018.09
2019-02-11T20:58:06.779Z,99020.63
2019-02-11T21:03:12.684Z,99046.80
2019-02-11T21:08:18.103Z,99035.25
2019-02-11T21:13:23.288Z,99038.52
2019-02-11T21:18:28.491Z,99053.73
2019-02-11T21:23:34.485Z,99060.88
2019-02-11T21:28:39.722Z,99078.89
2019-02-11T21:33:45.360Z,99075.81
2019-02-11T21:38:50.534Z,99077.88
2019-02-11T21:43:55.721Z,99069.28
2019-02-11T21:49:04.145Z,99073.52
2019-02-11T21:54:09.349Z,99075.66
2019-02-11T21:59:16.181Z,99079.47
2019-02-11T22:04:21.809Z,99067.23
2019-02-11T22:09:27.090Z,99077.53
2019-02-11T22:14:32.642Z,99085.50
2019-02-11T22:19:38.235Z,99085.20
2019-02-11T22:24:43.456Z,99088.58
2019-02-11T22:29:48.745Z,99095.94
2019-02-11T22:34:54.651Z,99096.61
2019-02-11T22:40:01.771Z,99107.02
2019-02-11T22:45:09.647Z,99103.00
2019-02-11T22:50:14.929Z,99131.63
2019-02-11T22:55:20.248Z,99120.25
2019-02-11T23:00:47.825Z,99127.77
2019-02-11T23:05:54.076Z,99132.37
2019-02-11T23:10:59.392Z,99158.72
2019-02-11T23:16:05.029Z,99160.03
2019-02-11T23:21:10.871Z,99173.36
2019-02-11T23:26:16.397Z,99173.22
2019-02-11T23:31:22.078Z,99174.27
2019-02-11T23:36:27.283Z,99187.19
2019-02-11T23:41:32.474Z,99189.58
2019-02-11T23:46:38.104Z,99224.32
2019-02-11T23:51:43.306Z,99216.37
2019-02-11T23:56:48.842Z,99207.15
